Time;durP1;ratioP1;P1;durP2;ratioP2;P2;SDS_P1;SDS_P2;PMS_P1;PMS_P2;Temp;Humidity;BMP_temperature;BMP_pressure;BME280_temperature;BME280_humidity;BME280_pressure;Samples;Min_cycle;Max_cycle;Signal;HPM_P1;HPM_P2
2023/07/25 00:00:19;;;;;;;6.20;4.40;;;;;;;20.86;62.13;96733.16;6210343;28;20216;-54
2023/07/25 00:03:22;;;;;;;4.37;3.57;;;;;;;20.91;61.88;96731.38;6227733;28;20573;-54
2023/07/25 00:06:24;;;;;;;4.47;4.03;;;;;;;20.97;61.92;96720.00;6217731;28;20315;-53
2023/07/25 00:09:26;;;;;;;5.43;3.67;;;;;;;21.03;61.31;96726.00;6231301;28;20284;-51
2023/07/25 00:12:29;;;;;;;4.10;3.60;;;;;;;21.08;60.43;96723.91;6228305;28;20579;-52
2023/07/25 00:15:31;;;;;;;3.50;3.13;;;;;;;21.11;60.64;96730.56;6227309;28;20234;-54
2023/07/25 00:18:34;;;;;;;3.93;3.53;;;;;;;21.12;59.66;96730.22;6228151;28;20230;-54
2023/07/25 00:21:36;;;;;;;5.23;4.27;;;;;;;21.15;60.35;96725.28;6229899;28;20230;-54
2023/07/25 00:24:38;;;;;;;8.97;3.50;;;;;;;21.12;60.25;96722.09;6228313;28;20242;-53
2023/07/25 00:27:41;;;;;;;12.90;9.63;;;;;;;21.09;60.26;96730.88;6225011;28;20219;-54
2023/07/25 00:30:43;;;;;;;7.87;6.77;;;;;;;21.07;60.83;96733.13;6210214;28;20231;-53
2023/07/25 00:33:46;;;;;;;5.00;4.50;;;;;;;21.06;60.15;96733.47;6227550;28;20240;-52
2023/07/25 00:36:51;;;;;;;9.37;7.80;;;;;;;21.06;60.68;96741.59;6232998;28;20572;-54
2023/07/25 00:39:53;;;;;;;7.47;4.73;;;;;;;21.10;59.02;96747.94;6225955;28;20575;-52
2023/07/25 00:42:56;;;;;;;3.47;2.70;;;;;;;21.44;56.68;96748.75;6225403;28;20720;-54
2023/07/25 00:46:01;;;;;;;3.13;2.77;;;;;;;21.69;55.29;96744.16;6230910;28;20231;-54
2023/07/25 00:49:20;;;;;;;9.30;5.80;;;;;;;21.64;57.72;96751.38;6222656;28;20232;-54
2023/07/25 00:52:25;;;;;;;3.43;2.40;;;;;;;21.86;53.98;96743.94;6224845;28;20223;-55
2023/07/25 00:55:30;;;;;;;3.20;2.10;;;;;;;21.83;54.54;96737.31;6200937;28;20240;-54
2023/07/25 00:58:32;;;;;;;2.97;2.27;;;;;;;21.91;54.59;96746.44;6227435;28;20320;-54
2023/07/25 01:01:37;;;;;;;2.80;2.07;;;;;;;22.11;52.67;96732.00;6226764;28;20244;-53
2023/07/25 01:04:40;;;;;;;3.70;2.73;;;;;;;22.24;53.25;96740.94;6226904;28;20244;-54
2023/07/25 01:07:42;;;;;;;3.20;2.40;;;;;;;22.28;52.68;96730.22;6230157;28;20227;-54
2023/07/25 01:10:44;;;;;;;2.77;2.40;;;;;;;22.05;54.38;96708.13;6231690;28;20236;-54
2023/07/25 01:13:49;;;;;;;4.03;2.40;;;;;;;22.10;55.14;96722.25;6214648;28;20231;-54
2023/07/25 01:16:52;;;;;;;3.10;2.40;;;;;;;22.06;55.18;96715.94;6223500;28;20224;-53
2023/07/25 01:19:54;;;;;;;2.67;2.20;;;;;;;21.93;55.55;96710.88;6212440;28;20230;-54
2023/07/25 01:22:58;;;;;;;4.50;2.67;;;;;;;21.77;56.93;96730.53;6217641;28;20262;-53
2023/07/25 01:26:01;;;;;;;3.87;2.57;;;;;;;21.25;56.81;96663.31;6187930;28;20610;-54
2023/07/25 01:29:03;;;;;;;5.40;4.40;;;;;;;21.58;58.22;96738.41;6212940;28;20239;-54
2023/07/25 01:32:06;;;;;;;4.43;3.67;;;;;;;21.44;59.22;96743.34;6212821;28;20676;-54
2023/07/25 01:35:08;;;;;;;5.17;2.87;;;;;;;21.30;60.79;96733.59;6226093;28;20235;-54
2023/07/25 01:38:11;;;;;;;4.13;3.03;;;;;;;21.12;62.03;96741.03;6228778;28;20232;-53
2023/07/25 01:41:15;;;;;;;3.97;2.60;;;;;;;21.02;63.19;96736.03;6228814;28;20235;-51
2023/07/25 01:44:18;;;;;;;2.67;2.27;;;;;;;20.92;63.74;96732.94;6230122;28;20306;-54
2023/07/25 01:47:25;;;;;;;3.00;2.37;;;;;;;20.86;63.07;96726.94;6230442;28;20231;-53
2023/07/25 01:50:28;;;;;;;4.50;2.70;;;;;;;20.76;63.62;96743.59;6230570;28;20729;-54
2023/07/25 01:53:30;;;;;;;2.90;2.30;;;;;;;20.61;65.25;96751.19;6229754;28;20705;-54
2023/07/25 01:56:33;;;;;;;3.50;2.93;;;;;;;20.56;65.34;96747.88;6229962;28;20285;-54
2023/07/25 01:59:35;;;;;;;2.60;2.40;;;;;;;20.61;64.78;96750.41;6230199;28;20227;-54
2023/07/25 02:02:38;;;;;;;3.70;2.50;;;;;;;20.80;62.85;96744.53;6230813;28;20709;-54
2023/07/25 02:05:40;;;;;;;3.10;2.80;;;;;;;20.83;62.37;96735.72;6229916;28;20687;-54
2023/07/25 02:08:43;;;;;;;3.83;2.50;;;;;;;20.95;62.25;96760.16;6230127;28;20247;-54
2023/07/25 02:11:45;;;;;;;4.60;2.53;;;;;;;20.95;62.04;96760.16;6228262;28;20235;-54
2023/07/25 02:14:48;;;;;;;5.10;2.23;;;;;;;20.89;63.81;96749.88;6230838;28;20224;-54
2023/07/25 02:17:51;;;;;;;3.53;2.33;;;;;;;20.68;62.05;96715.47;6228842;28;20223;-54
2023/07/25 02:20:54;;;;;;;2.63;2.40;;;;;;;20.97;60.98;96733.53;6230868;28;20232;-53
2023/07/25 02:23:56;;;;;;;2.83;2.30;;;;;;;20.95;61.82;96722.25;6221176;28;20232;-53
2023/07/25 02:26:58;;;;;;;3.27;2.40;;;;;;;20.84;62.15;96710.25;6230036;28;20228;-52
2023/07/25 02:30:01;;;;;;;3.00;2.57;;;;;;;20.78;62.53;96725.88;6230021;28;20231;-53
2023/07/25 02:33:03;;;;;;;2.33;2.00;;;;;;;20.69;62.86;96718.97;6229162;28;20226;-52
2023/07/25 02:36:08;;;;;;;3.77;2.67;;;;;;;20.63;62.22;96704.06;6227178;28;20224;-53
2023/07/25 02:39:16;;;;;;;3.00;2.13;;;;;;;20.58;62.35;96716.66;6205427;28;20314;-51
2023/07/25 02:42:20;;;;;;;2.83;2.40;;;;;;;20.52;63.05;96704.44;6229147;28;20216;-53
2023/07/25 02:45:25;;;;;;;4.67;2.67;;;;;;;20.57;61.99;96703.47;6229189;28;20224;-38
2023/07/25 02:48:28;;;;;;;2.73;2.20;;;;;;;20.61;61.19;96694.34;6229274;28;20710;-37
2023/07/25 02:51:30;;;;;;;3.83;2.40;;;;;;;20.67;60.98;96686.81;6229264;28;20227;-38
2023/07/25 02:54:33;;;;;;;3.20;2.03;;;;;;;20.65;61.46;96680.97;6229011;28;20459;-38
2023/07/25 02:57:35;;;;;;;3.07;2.40;;;;;;;20.61;61.58;96696.28;6227823;28;20228;-38
2023/07/25 03:00:37;;;;;;;2.27;2.07;;;;;;;20.61;61.33;96716.00;6229329;28;20222;-38
2023/07/25 03:03:40;;;;;;;4.43;2.87;;;;;;;20.58;62.08;96723.97;6212199;28;20591;-38
2023/07/25 03:06:42;;;;;;;3.97;2.60;;;;;;;20.55;62.20;96730.06;6220285;28;20239;-37
2023/07/25 03:09:44;;;;;;;2.53;2.30;;;;;;;20.50;62.04;96717.53;6210106;28;20315;-38
2023/07/25 03:12:46;;;;;;;3.30;2.40;;;;;;;20.49;63.11;96725.94;6228458;28;20267;-37
2023/07/25 03:15:49;;;;;;;2.57;2.00;;;;;;;20.35;64.05;96718.88;6228881;28;20771;-37
2023/07/25 03:18:51;;;;;;;3.23;2.20;;;;;;;20.19;64.81;96720.53;6228052;28;20228;-37
2023/07/25 03:21:54;;;;;;;2.33;2.13;;;;;;;20.04;65.78;96715.69;6227621;28;20224;-37
2023/07/25 03:24:56;;;;;;;2.27;2.07;;;;;;;19.93;65.65;96709.09;6229610;28;20239;-38
2023/07/25 03:27:59;;;;;;;3.10;2.30;;;;;;;19.86;66.03;96709.59;6228152;28;20255;-38
2023/07/25 03:31:01;;;;;;;3.43;2.40;;;;;;;19.76;66.93;96699.16;6210416;28;20246;-37
2023/07/25 03:34:04;;;;;;;2.53;2.20;;;;;;;19.55;68.25;96670.09;6227576;28;20231;-38
2023/07/25 03:37:06;;;;;;;3.50;2.53;;;;;;;19.61;68.47;96687.00;6228691;28;20266;-38
2023/07/25 03:40:08;;;;;;;4.37;2.80;;;;;;;19.76;67.81;96682.94;6226120;28;20713;-37
2023/07/25 03:43:10;;;;;;;2.60;2.33;;;;;;;19.89;67.30;96681.13;6228510;28;20235;-37
2023/07/25 03:46:13;;;;;;;3.93;2.63;;;;;;;19.88;67.18;96676.84;6227302;28;20266;-37
2023/07/25 03:49:15;;;;;;;2.80;2.50;;;;;;;19.89;67.49;96683.81;6228239;28;20901;-37
2023/07/25 03:52:18;;;;;;;5.00;2.80;;;;;;;19.88;68.07;96671.44;6228984;28;20223;-37
2023/07/25 03:55:20;;;;;;;5.10;2.47;;;;;;;19.84;68.43;96676.69;6227435;28;20602;-38
2023/07/25 03:58:22;;;;;;;4.47;2.73;;;;;;;19.83;69.14;96675.91;6217664;28;20334;-37
2023/07/25 04:01:24;;;;;;;3.70;2.47;;;;;;;19.83;68.89;96677.81;6227443;28;20239;-37
2023/07/25 04:04:27;;;;;;;3.03;2.57;;;;;;;19.87;67.78;96677.97;6226775;28;20250;-37
2023/07/25 04:07:29;;;;;;;3.77;2.60;;;;;;;19.87;68.01;96670.66;6227986;28;20739;-38
2023/07/25 04:10:31;;;;;;;3.83;3.17;;;;;;;19.92;68.12;96677.78;6227589;28;20239;-37
2023/07/25 04:13:34;;;;;;;4.13;2.60;;;;;;;19.87;68.31;96670.66;6228011;28;20855;-38
2023/07/25 04:16:36;;;;;;;3.20;2.33;;;;;;;19.85;68.19;96662.06;6227406;28;20235;-37
2023/07/25 04:19:39;;;;;;;3.17;2.63;;;;;;;19.83;68.77;96675.09;6226840;28;20239;-38
2023/07/25 04:22:41;;;;;;;3.43;2.63;;;;;;;19.82;68.73;96687.84;6227839;28;20659;-37
2023/07/25 04:25:44;;;;;;;4.10;2.50;;;;;;;19.84;68.50;96696.41;6208650;28;20610;-38
2023/07/25 04:28:48;;;;;;;3.57;2.40;;;;;;;19.86;69.09;96693.38;6209895;28;20238;-37
2023/07/25 04:31:50;;;;;;;2.53;2.33;;;;;;;19.70;70.54;96692.34;6209496;28;20650;-38
2023/07/25 04:34:52;;;;;;;2.80;2.57;;;;;;;19.64;71.20;96697.13;6210094;28;20234;-38
2023/07/25 04:37:57;;;;;;;4.07;2.43;;;;;;;19.59;70.89;96700.81;6227460;28;20236;-38
2023/07/25 04:40:59;;;;;;;3.27;2.33;;;;;;;19.59;70.88;96705.38;6233377;28;20736;-38
2023/07/25 04:44:01;;;;;;;4.43;2.60;;;;;;;19.46;71.58;96687.50;6236147;28;20238;-38
2023/07/25 04:47:04;;;;;;;3.63;2.83;;;;;;;19.55;71.96;96718.75;6215024;28;20220;-38
2023/07/25 04:50:07;;;;;;;3.10;2.53;;;;;;;19.47;72.54;96708.78;6228663;28;20231;-37
2023/07/25 04:53:09;;;;;;;2.67;2.40;;;;;;;19.51;73.15;96719.72;6229257;28;20243;-37
2023/07/25 04:56:12;;;;;;;3.77;2.40;;;;;;;19.48;73.41;96720.38;6231144;28;20234;-38
2023/07/25 04:59:14;;;;;;;3.30;2.70;;;;;;;19.47;74.04;96735.00;6231592;28;20238;-37
2023/07/25 05:02:19;;;;;;;3.97;2.67;;;;;;;19.44;74.75;96744.53;6230557;28;20238;-38
2023/07/25 05:05:21;;;;;;;4.37;2.80;;;;;;;19.43;74.55;96734.84;6231482;28;20235;-38
2023/07/25 05:08:24;;;;;;;4.07;2.90;;;;;;;19.50;75.08;96750.53;6231799;28;20223;-52
2023/07/25 05:11:26;;;;;;;3.63;2.60;;;;;;;19.59;75.22;96740.50;6231093;28;20760;-55
2023/07/25 05:14:28;;;;;;;3.83;3.17;;;;;;;19.81;72.96;96742.22;6226638;28;20251;-55
2023/07/25 05:17:31;;;;;;;3.80;2.67;;;;;;;19.99;72.27;96737.50;6214212;28;20235;-54
2023/07/25 05:20:34;;;;;;;4.77;3.00;;;;;;;20.16;70.70;96747.47;6231784;28;20232;-55
2023/07/25 05:23:37;;;;;;;3.90;3.00;;;;;;;20.18;70.33;96729.78;6237501;28;20231;-57
2023/07/25 05:26:45;;;;;;;2.87;2.57;;;;;;;20.24;70.97;96714.94;6214893;28;20228;-53
2023/07/25 05:30:09;;;;;;;2.90;2.60;;;;;;;20.38;70.66;96733.63;6228003;28;20236;-54
2023/07/25 05:33:13;;;;;;;2.60;2.40;;;;;;;20.38;70.47;96720.09;6209368;28;20244;-53
2023/07/25 05:36:15;;;;;;;3.63;2.70;;;;;;;20.39;71.86;96724.41;6227966;28;20253;-56
2023/07/25 05:39:18;;;;;;;3.80;2.60;;;;;;;20.33;72.27;96723.81;6228902;28;20231;-54
2023/07/25 05:42:20;;;;;;;4.37;2.47;;;;;;;20.32;72.70;96743.88;6229146;28;20219;-54
2023/07/25 05:45:23;;;;;;;3.17;2.70;;;;;;;20.25;71.76;96732.78;6230583;28;20250;-53
2023/07/25 05:48:25;;;;;;;3.33;2.50;;;;;;;20.18;71.22;96718.97;6230479;28;20231;-54
2023/07/25 05:51:29;;;;;;;3.47;2.80;;;;;;;19.95;72.30;96691.44;6219241;28;20232;-55
2023/07/25 05:54:34;;;;;;;3.10;2.80;;;;;;;19.82;75.85;96687.84;6215768;28;20223;-55
2023/07/25 05:57:37;;;;;;;3.23;2.77;;;;;;;19.61;76.74;96668.06;6230627;28;20258;-53
2023/07/25 06:00:39;;;;;;;3.87;3.00;;;;;;;19.65;77.22;96687.13;6230620;28;20239;-60
2023/07/25 06:03:41;;;;;;;3.73;2.97;;;;;;;19.53;78.35;96687.78;6229873;28;20231;-54
2023/07/25 06:06:44;;;;;;;2.87;2.57;;;;;;;19.53;79.44;96674.25;6221593;28;20716;-53
2023/07/25 06:09:47;;;;;;;3.17;2.87;;;;;;;19.49;80.31;96697.63;6233656;28;20377;-56
2023/07/25 06:12:49;;;;;;;3.90;2.63;;;;;;;19.51;80.99;96714.34;6232630;28;20238;-54
2023/07/25 06:15:52;;;;;;;3.10;2.70;;;;;;;19.40;81.20;96702.28;6230490;28;20224;-55
2023/07/25 06:18:58;;;;;;;3.57;2.90;;;;;;;19.31;82.57;96705.81;6225093;28;20236;-55
2023/07/25 06:22:00;;;;;;;5.57;3.23;;;;;;;19.11;83.19;96711.88;6212360;28;20234;-55
2023/07/25 06:25:03;;;;;;;3.83;3.40;;;;;;;18.95;83.43;96735.88;6230201;28;20227;-55
2023/07/25 06:28:06;;;;;;;3.20;2.80;;;;;;;18.95;84.19;96773.66;6226127;28;20224;-54
2023/07/25 06:31:25;;;;;;;3.77;2.63;;;;;;;18.94;85.09;96782.88;6214435;28;20311;-55
2023/07/25 06:34:57;;;;;;;4.07;2.77;;;;;;;18.75;85.49;96750.78;6192527;28;21035;-55
2023/07/25 06:38:26;;;;;;;3.50;3.20;;;;;;;18.62;87.64;96751.72;6198273;28;20233;-54
2023/07/25 06:41:29;;;;;;;4.80;3.10;;;;;;;18.61;88.30;96785.19;6211056;28;20789;-53
2023/07/25 06:44:37;;;;;;;5.33;3.30;;;;;;;18.54;89.04;96780.25;6212352;28;20432;-53
2023/07/25 06:47:39;;;;;;;4.17;3.17;;;;;;;18.44;90.21;96763.59;6228597;28;20244;-52
2023/07/25 06:50:45;;;;;;;4.57;3.80;;;;;;;18.39;91.83;96753.75;6225557;28;20329;-53
2023/07/25 06:53:48;;;;;;;5.57;3.43;;;;;;;18.17;92.56;96727.69;6229061;28;20323;-53
2023/07/25 06:56:51;;;;;;;5.23;4.07;;;;;;;18.20;93.29;96737.84;6231228;28;20257;-54
2023/07/25 06:59:55;;;;;;;4.70;3.47;;;;;;;18.19;93.96;96748.97;6224380;28;20709;-54
2023/07/25 07:02:57;;;;;;;6.03;3.77;;;;;;;18.00;94.62;96736.53;6227810;28;20849;-53
2023/07/25 07:06:03;;;;;;;4.97;3.37;;;;;;;18.10;95.24;96767.00;6230134;28;20378;-54
2023/07/25 07:09:06;;;;;;;5.50;4.00;;;;;;;17.99;95.89;96753.81;6227449;28;20236;-54
2023/07/25 07:12:08;;;;;;;5.97;4.30;;;;;;;17.87;97.65;96758.19;6227512;28;20696;-53
2023/07/25 07:15:11;;;;;;;4.80;3.87;;;;;;;17.93;98.22;96778.50;6216065;28;20211;-54
2023/07/25 07:18:15;;;;;;;4.13;3.40;;;;;;;17.81;98.79;96775.59;6233357;28;20232;-52
2023/07/25 07:21:17;;;;;;;3.70;3.07;;;;;;;17.81;98.89;96781.00;6226789;28;20230;-54
2023/07/25 07:24:20;;;;;;;4.13;3.70;;;;;;;17.74;98.94;96784.16;6227492;28;20816;-54
2023/07/25 07:27:23;;;;;;;4.63;3.33;;;;;;;17.70;99.97;96800.09;6226968;28;20231;-52
2023/07/25 07:30:25;;;;;;;4.23;3.67;;;;;;;17.63;100.00;96790.84;6227813;28;20239;-55
2023/07/25 07:33:29;;;;;;;4.43;3.53;;;;;;;17.60;100.00;96786.09;6225859;28;20276;-55
2023/07/25 07:36:33;;;;;;;4.30;3.43;;;;;;;17.45;100.00;96780.00;6228545;28;20763;-55
2023/07/25 07:39:37;;;;;;;6.10;3.90;;;;;;;17.48;100.00;96773.19;6226991;28;20242;-52
2023/07/25 07:42:39;;;;;;;6.03;4.00;;;;;;;17.46;100.00;96772.72;6226936;28;20716;-53
2023/07/25 07:45:42;;;;;;;4.10;3.67;;;;;;;17.45;100.00;96771.91;6223136;28;20373;-54
2023/07/25 07:48:45;;;;;;;5.13;4.10;;;;;;;17.46;100.00;96776.19;6228023;28;20235;-54
2023/07/25 07:51:47;;;;;;;5.40;3.97;;;;;;;17.36;100.00;96778.34;6227022;28;20239;-53
2023/07/25 07:55:06;;;;;;;4.03;3.40;;;;;;;17.34;100.00;96777.84;6227341;28;20236;-55
2023/07/25 07:58:09;;;;;;;4.67;3.87;;;;;;;17.26;100.00;96774.81;6222023;28;20227;-55
2023/07/25 08:01:23;;;;;;;6.30;4.30;;;;;;;17.15;100.00;96767.28;6226072;28;20229;-55
2023/07/25 08:04:26;;;;;;;5.17;3.60;;;;;;;17.21;100.00;96788.38;6223656;28;20278;-55
2023/07/25 08:07:28;;;;;;;4.77;4.17;;;;;;;17.16;100.00;96801.97;6226738;28;20259;-55
2023/07/25 08:10:30;;;;;;;3.80;2.97;;;;;;;16.89;100.00;96805.53;6226680;28;20585;-54
2023/07/25 08:13:33;;;;;;;4.83;2.70;;;;;;;16.69;98.91;96817.50;6226743;28;20232;-54
2023/07/25 08:16:35;;;;;;;3.30;2.73;;;;;;;16.58;97.01;96826.13;6229028;28;20235;-55
2023/07/25 08:19:37;;;;;;;4.43;3.27;;;;;;;16.46;98.85;96818.56;6232545;28;20242;-55
2023/07/25 08:22:40;;;;;;;5.67;3.10;;;;;;;16.35;99.51;96799.13;6231847;28;20298;-55
2023/07/25 08:25:43;;;;;;;5.33;3.20;;;;;;;16.32;99.92;96813.19;6232081;28;20718;-54
2023/07/25 08:28:46;;;;;;;3.37;2.90;;;;;;;16.25;100.00;96796.66;6227808;28;20243;-54
2023/07/25 08:31:48;;;;;;;4.13;2.93;;;;;;;16.32;100.00;96790.91;6231396;28;20393;-54
2023/07/25 08:34:51;;;;;;;3.60;2.73;;;;;;;16.30;100.00;96780.44;6232813;28;20318;-54
2023/07/25 08:37:53;;;;;;;3.20;2.50;;;;;;;16.28;100.00;96773.78;6212969;28;20238;-54
2023/07/25 08:41:12;;;;;;;3.33;2.80;;;;;;;16.24;100.00;96749.38;6232021;28;20236;-54
2023/07/25 08:44:19;;;;;;;4.57;2.80;;;;;;;16.21;100.00;96709.69;6231426;28;20366;-54
2023/07/25 08:47:27;;;;;;;3.53;2.70;;;;;;;16.14;100.00;96653.66;6208023;28;20596;-55
2023/07/25 08:50:31;;;;;;;3.37;2.67;;;;;;;16.20;100.00;96585.28;6232133;28;20728;-53
2023/07/25 08:53:40;;;;;;;5.50;2.90;;;;;;;16.20;100.00;96493.91;6227884;28;20945;-54
2023/07/25 08:56:44;;;;;;;4.43;3.13;;;;;;;15.92;99.67;96460.25;6231052;28;20240;-53
2023/07/25 08:59:48;;;;;;;3.93;2.87;;;;;;;16.09;100.00;96567.81;6231696;28;20259;-54
2023/07/25 09:02:53;;;;;;;3.83;2.70;;;;;;;16.10;100.00;96650.00;6213723;28;20370;-56
2023/07/25 09:05:58;;;;;;;4.60;2.70;;;;;;;16.04;100.00;96683.44;6230701;28;20224;-54
2023/07/25 09:09:00;;;;;;;3.13;2.50;;;;;;;15.96;100.00;96719.88;6228681;28;20243;-55
2023/07/25 09:12:04;;;;;;;5.33;2.87;;;;;;;15.89;100.00;96697.19;6213094;28;20235;-53
2023/07/25 09:15:07;;;;;;;3.03;2.73;;;;;;;15.88;100.00;96644.56;6230056;28;20596;-50
2023/07/25 09:18:09;;;;;;;2.67;2.47;;;;;;;15.92;100.00;96641.00;6222048;28;20212;-50
2023/07/25 09:21:13;;;;;;;4.30;2.53;;;;;;;15.99;100.00;96686.25;6230234;28;20685;-53
2023/07/25 09:24:15;;;;;;;3.47;2.57;;;;;;;16.08;100.00;96692.50;6230884;28;20307;-51
2023/07/25 09:27:18;;;;;;;3.23;2.37;;;;;;;16.18;100.00;96694.97;6230391;28;20691;-51
2023/07/25 09:30:26;;;;;;;2.43;2.23;;;;;;;16.22;100.00;96697.84;6229912;28;20231;-53
2023/07/25 09:33:29;;;;;;;3.03;2.27;;;;;;;16.28;100.00;96696.63;6230744;28;20298;-53
2023/07/25 09:36:31;;;;;;;2.70;2.10;;;;;;;16.30;100.00;96696.31;6230429;28;20231;-53
2023/07/25 09:39:34;;;;;;;2.27;2.07;;;;;;;16.34;100.00;96700.78;6229021;28;20426;-54
2023/07/25 09:42:41;;;;;;;2.80;2.20;;;;;;;16.39;100.00;96678.38;6230151;28;20224;-53
2023/07/25 09:45:45;;;;;;;2.70;2.47;;;;;;;16.50;100.00;96685.09;6230478;28;20266;-53
2023/07/25 09:48:51;;;;;;;2.27;2.07;;;;;;;16.54;100.00;96680.72;6204400;28;20227;-51
2023/07/25 09:52:03;;;;;;;2.50;2.30;;;;;;;16.57;100.00;96672.06;6226731;28;20238;-54
2023/07/25 09:55:05;;;;;;;2.60;2.40;;;;;;;16.64;100.00;96667.03;6229859;28;20232;-56
2023/07/25 09:58:08;;;;;;;2.40;2.20;;;;;;;16.69;100.00;96677.66;6230927;28;20247;-55
2023/07/25 10:01:10;;;;;;;2.77;2.10;;;;;;;16.64;100.00;96660.88;6229887;28;20311;-55
2023/07/25 10:04:15;;;;;;;2.83;2.57;;;;;;;16.77;100.00;96671.59;6229153;28;20236;-54
2023/07/25 10:07:18;;;;;;;2.40;2.20;;;;;;;16.82;100.00;96667.19;6225319;28;20313;-54
2023/07/25 10:10:21;;;;;;;2.63;2.43;;;;;;;16.87;100.00;96667.88;6229712;28;20228;-53
2023/07/25 10:13:24;;;;;;;2.83;2.33;;;;;;;16.95;100.00;96663.66;6229811;28;20244;-53
2023/07/25 10:16:26;;;;;;;3.23;2.93;;;;;;;17.03;100.00;96662.88;6225576;28;20697;-54
2023/07/25 10:19:47;;;;;;;2.60;2.40;;;;;;;17.07;100.00;96661.16;6229363;28;20740;-54
2023/07/25 10:22:52;;;;;;;2.53;2.30;;;;;;;17.04;100.00;96664.47;6224445;28;20228;-54
2023/07/25 10:25:55;;;;;;;3.07;2.53;;;;;;;16.96;100.00;96665.22;6229501;28;20228;-54
2023/07/25 10:28:59;;;;;;;3.03;2.20;;;;;;;17.08;100.00;96681.59;6225915;28;20227;-54
2023/07/25 10:32:03;;;;;;;3.13;2.57;;;;;;;17.08;100.00;96686.19;6208228;28;20239;-54
2023/07/25 10:35:06;;;;;;;2.70;2.50;;;;;;;17.01;100.00;96692.81;6229548;28;20267;-52
2023/07/25 10:38:10;;;;;;;4.87;2.43;;;;;;;17.03;100.00;96695.19;6223086;28;20238;-55
2023/07/25 10:41:13;;;;;;;2.90;2.60;;;;;;;17.05;100.00;96692.19;6234874;28;20235;-55
2023/07/25 10:44:35;;;;;;;2.80;2.60;;;;;;;17.02;100.00;96683.63;6228502;28;20703;-51
2023/07/25 10:47:45;;;;;;;2.37;2.17;;;;;;;17.03;100.00;96693.28;6228888;28;20240;-53
2023/07/25 10:50:48;;;;;;;3.93;2.53;;;;;;;17.07;100.00;96701.53;6226958;28;20234;-55
2023/07/25 10:54:14;;;;;;;4.00;2.77;;;;;;;17.10;100.00;96698.25;6229457;28;20235;-55
2023/07/25 10:57:22;;;;;;;3.70;2.43;;;;;;;17.07;100.00;96698.06;6225930;28;20220;-55
2023/07/25 11:00:34;;;;;;;2.67;2.20;;;;;;;17.06;100.00;96707.25;6229481;28;20303;-54
2023/07/25 11:03:37;;;;;;;2.53;2.33;;;;;;;17.11;100.00;96707.09;6229698;28;20220;-54
2023/07/25 11:06:39;;;;;;;2.73;2.53;;;;;;;17.09;100.00;96706.59;6227693;28;20682;-54
2023/07/25 11:09:43;;;;;;;3.00;2.70;;;;;;;17.12;100.00;96704.09;6228176;28;20232;-56
2023/07/25 11:12:49;;;;;;;3.00;2.70;;;;;;;17.20;100.00;96689.13;6228067;28;20639;-54
2023/07/25 11:15:51;;;;;;;3.60;2.87;;;;;;;17.28;100.00;96677.59;6226806;28;20235;-54
2023/07/25 11:18:53;;;;;;;2.77;2.53;;;;;;;17.21;100.00;96637.66;6228389;28;20246;-54
2023/07/25 11:21:56;;;;;;;2.90;2.70;;;;;;;17.48;100.00;96665.47;6227852;28;20236;-55
2023/07/25 11:25:07;;;;;;;4.60;3.43;;;;;;;17.58;100.00;96648.25;6228798;28;21100;-53
2023/07/25 11:28:09;;;;;;;3.67;2.93;;;;;;;17.66;100.00;96653.66;6210715;28;20263;-55
2023/07/25 11:31:21;;;;;;;3.20;2.90;;;;;;;17.75;100.00;96651.03;6227493;28;20235;-54
2023/07/25 11:34:23;;;;;;;4.70;2.80;;;;;;;17.76;100.00;96637.25;6209876;28;20248;-52
2023/07/25 11:37:25;;;;;;;2.83;2.57;;;;;;;17.77;100.00;96619.97;6226309;28;20224;-55
2023/07/25 11:40:27;;;;;;;3.97;2.90;;;;;;;17.88;100.00;96623.19;6227444;28;20244;-54
2023/07/25 11:43:34;;;;;;;3.43;2.83;;;;;;;17.98;100.00;96627.44;6228129;28;20321;-53
2023/07/25 11:46:55;;;;;;;2.50;2.30;;;;;;;18.10;100.00;96618.75;6224879;28;20253;-55
2023/07/25 11:49:58;;;;;;;3.00;2.70;;;;;;;18.17;100.00;96619.06;6224772;28;20290;-55
2023/07/25 11:53:22;;;;;;;2.90;2.70;;;;;;;18.24;100.00;96601.31;6222568;28;20258;-54
2023/07/25 11:56:24;;;;;;;3.00;2.70;;;;;;;18.32;99.13;96602.41;6227093;28;20232;-55
2023/07/25 11:59:27;;;;;;;3.40;2.77;;;;;;;18.47;99.59;96595.75;6227284;28;20635;-55
2023/07/25 12:02:40;;;;;;;6.67;6.00;;;;;;;18.59;98.53;96603.19;6227726;28;20224;-55
2023/07/25 12:05:42;;;;;;;3.10;2.80;;;;;;;18.71;98.18;96597.97;6208378;28;20821;-55
2023/07/25 12:08:45;;;;;;;2.93;2.63;;;;;;;18.69;98.30;96576.72;6227702;28;20224;-55
2023/07/25 12:11:48;;;;;;;2.90;2.70;;;;;;;18.78;98.85;96598.28;6227021;28;20224;-54
2023/07/25 12:14:58;;;;;;;26.27;21.60;;;;;;;18.73;99.01;96599.25;6225916;28;20326;-55
2023/07/25 12:18:01;;;;;;;8.17;7.37;;;;;;;18.87;99.23;96609.06;6229294;28;20228;-54
2023/07/25 12:21:04;;;;;;;6.03;5.43;;;;;;;18.90;99.30;96601.09;6226461;28;20273;-55
2023/07/25 12:24:09;;;;;;;4.17;3.77;;;;;;;18.90;99.31;96601.09;6226702;28;20222;-55
2023/07/25 12:27:18;;;;;;;3.50;3.20;;;;;;;18.92;99.14;96611.59;6209014;28;20215;-55
2023/07/25 12:30:21;;;;;;;3.60;3.00;;;;;;;18.87;98.97;96592.88;6227098;28;20782;-53
2023/07/25 12:33:23;;;;;;;4.73;3.10;;;;;;;19.02;99.08;96600.44;6227431;28;20227;-51
2023/07/25 12:36:27;;;;;;;3.67;2.70;;;;;;;18.81;98.98;96579.53;6226588;28;20273;-55
2023/07/25 12:39:30;;;;;;;2.67;2.47;;;;;;;18.98;99.38;96615.69;6226059;28;20236;-55
2023/07/25 12:42:33;;;;;;;3.20;2.90;;;;;;;19.03;99.69;96626.31;6226455;28;20223;-55
2023/07/25 12:45:35;;;;;;;2.83;2.53;;;;;;;18.94;99.63;96607.44;6226336;28;20228;-59
2023/07/25 12:48:38;;;;;;;6.27;4.00;;;;;;;19.05;99.79;96621.38;6220446;28;20412;-53
2023/07/25 12:51:41;;;;;;;4.07;3.67;;;;;;;19.15;99.88;96633.72;6226547;28;20260;-54
2023/07/25 12:54:43;;;;;;;3.43;3.10;;;;;;;19.16;99.74;96611.00;6226666;28;20243;-53
2023/07/25 12:57:46;;;;;;;3.30;2.80;;;;;;;19.27;99.32;96628.47;6226139;28;20592;-53
2023/07/25 13:00:51;;;;;;;3.20;2.80;;;;;;;19.19;98.27;96600.38;6226523;28;20234;-53
2023/07/25 13:03:53;;;;;;;3.20;2.67;;;;;;;19.41;97.95;96612.03;6230070;28;20243;-53
2023/07/25 13:06:56;;;;;;;3.17;2.60;;;;;;;19.48;97.88;96601.50;6230772;28;20276;-58
2023/07/25 13:09:59;;;;;;;3.00;2.70;;;;;;;19.53;97.60;96598.63;6213356;28;20258;-55
2023/07/25 13:13:02;;;;;;;2.87;2.57;;;;;;;19.44;96.63;96585.16;6229510;28;20401;-52
2023/07/25 13:16:06;;;;;;;3.40;3.10;;;;;;;19.56;97.85;96601.47;6230777;28;20243;-55
2023/07/25 13:19:12;;;;;;;4.97;4.17;;;;;;;19.64;98.55;96591.75;6230515;28;20696;-54
2023/07/25 13:22:14;;;;;;;4.20;3.87;;;;;;;19.68;98.93;96564.88;6230420;28;20232;-57
2023/07/25 13:25:17;;;;;;;4.10;3.50;;;;;;;19.94;98.13;96578.22;6211761;28;20235;-57
2023/07/25 13:28:19;;;;;;;3.30;3.00;;;;;;;20.07;97.46;96583.38;6230345;28;20248;-56
2023/07/25 13:31:22;;;;;;;2.87;2.53;;;;;;;19.94;89.39;96556.59;6229963;28;20331;-56
2023/07/25 13:34:25;;;;;;;2.40;2.20;;;;;;;19.86;91.04;96552.06;6212805;28;20231;-59
2023/07/25 13:37:30;;;;;;;3.43;2.60;;;;;;;19.80;92.69;96560.34;6218487;28;20231;-55
2023/07/25 13:40:32;;;;;;;3.00;2.70;;;;;;;19.89;93.88;96559.47;6230573;28;20374;-54
2023/07/25 13:43:35;;;;;;;3.03;2.50;;;;;;;19.96;93.48;96555.16;6230949;28;20270;-56
2023/07/25 13:46:37;;;;;;;2.50;2.30;;;;;;;19.77;94.08;96520.47;6230167;28;20756;-55
2023/07/25 13:49:40;;;;;;;2.27;2.10;;;;;;;19.93;94.21;96549.59;6231102;28;20236;-58
2023/07/25 13:52:42;;;;;;;2.40;2.20;;;;;;;19.94;94.86;96543.06;6229703;28;20243;-58
2023/07/25 13:55:45;;;;;;;2.73;2.53;;;;;;;20.03;95.32;96532.97;6229369;28;20228;-58
2023/07/25 13:58:47;;;;;;;6.20;2.43;;;;;;;20.13;91.84;96537.19;6229851;28;20224;-58
2023/07/25 14:01:56;;;;;;;4.80;2.20;;;;;;;20.18;91.40;96535.06;6229035;28;20350;-57
2023/07/25 14:04:59;;;;;;;2.43;2.17;;;;;;;20.13;84.42;96542.59;6235105;28;20235;-57
2023/07/25 14:08:01;;;;;;;3.17;2.63;;;;;;;20.17;87.88;96546.22;6234616;28;20227;-51
2023/07/25 14:11:04;;;;;;;6.17;2.47;;;;;;;20.05;89.56;96552.38;6229908;28;20238;-56
2023/07/25 14:14:07;;;;;;;4.10;2.50;;;;;;;19.99;89.68;96538.25;6229027;28;20258;-56
2023/07/25 14:17:11;;;;;;;5.40;2.07;;;;;;;19.94;90.08;96534.97;6229848;28;20587;-56
2023/07/25 14:20:14;;;;;;;2.33;2.13;;;;;;;19.95;91.58;96531.94;6225467;28;20227;-56
2023/07/25 14:23:17;;;;;;;2.40;2.20;;;;;;;19.95;91.88;96545.47;6227919;28;20361;-57